sensor_id;sensor_type;location;lat;lon;timestamp;pressure;altitude;pressure_sealevel;temperature;humidity
44441;BME280;30146;52.268;20.944;2023-03-22T00:00:29;100330.77;;;5.69;65.87
44441;BME280;30146;52.268;20.944;2023-03-22T00:03:00;100332.63;;;5.68;65.78
44441;BME280;30146;52.268;20.944;2023-03-22T00:05:31;100335.00;;;5.67;65.91
44441;BME280;30146;52.268;20.944;2023-03-22T00:08:02;100330.90;;;5.65;65.78
44441;BME280;30146;52.268;20.944;2023-03-22T00:10:36;100327.66;;;5.64;65.78
44441;BME280;30146;52.268;20.944;2023-03-22T00:13:10;100321.36;;;5.62;65.76
44441;BME280;30146;52.268;20.944;2023-03-22T00:15:43;100312.36;;;5.59;65.82
44441;BME280;30146;52.268;20.944;2023-03-22T00:18:17;100310.15;;;5.58;66.03
44441;BME280;30146;52.268;20.944;2023-03-22T00:20:49;100310.98;;;5.57;65.96
44441;BME280;30146;52.268;20.944;2023-03-22T00:23:21;100307.23;;;5.54;65.91
44441;BME280;30146;52.268;20.944;2023-03-22T00:25:53;100307.37;;;5.52;65.99
44441;BME280;30146;52.268;20.944;2023-03-22T00:28:25;100309.05;;;5.50;65.89
44441;BME280;30146;52.268;20.944;2023-03-22T00:30:57;100311.41;;;5.49;66.07
44441;BME280;30146;52.268;20.944;2023-03-22T00:33:29;100306.65;;;5.48;66.15
44441;BME280;30146;52.268;20.944;2023-03-22T00:36:02;100306.27;;;5.46;66.35
44441;BME280;30146;52.268;20.944;2023-03-22T00:38:35;100306.95;;;5.44;66.11
44441;BME280;30146;52.268;20.944;2023-03-22T00:41:14;100305.92;;;5.43;66.21
44441;BME280;30146;52.268;20.944;2023-03-22T00:43:47;100306.07;;;5.42;66.23
44441;BME280;30146;52.268;20.944;2023-03-22T00:46:19;100310.14;;;5.40;66.47
44441;BME280;30146;52.268;20.944;2023-03-22T00:48:51;100307.73;;;5.40;66.24
44441;BME280;30146;52.268;20.944;2023-03-22T00:51:23;100302.32;;;5.39;66.38
44441;BME280;30146;52.268;20.944;2023-03-22T00:53:54;100303.16;;;5.38;66.18
44441;BME280;30146;52.268;20.944;2023-03-22T00:56:25;100299.23;;;5.37;66.51
44441;BME280;30146;52.268;20.944;2023-03-22T00:59:02;100292.10;;;5.36;66.55
44441;BME280;30146;52.268;20.944;2023-03-22T01:01:33;100290.56;;;5.34;66.37
44441;BME280;30146;52.268;20.944;2023-03-22T01:04:04;100283.95;;;5.33;66.62
44441;BME280;30146;52.268;20.944;2023-03-22T01:06:36;100282.06;;;5.32;66.56
44441;BME280;30146;52.268;20.944;2023-03-22T01:09:08;100281.38;;;5.31;66.59
44441;BME280;30146;52.268;20.944;2023-03-22T01:11:44;100283.23;;;5.31;66.66
44441;BME280;30146;52.268;20.944;2023-03-22T01:14:15;100279.49;;;5.30;66.55
44441;BME280;30146;52.268;20.944;2023-03-22T01:16:46;100281.20;;;5.31;66.83
44441;BME280;30146;52.268;20.944;2023-03-22T01:19:17;100280.55;;;5.33;66.72
44441;BME280;30146;52.268;20.944;2023-03-22T01:21:49;100278.71;;;5.35;66.62
44441;BME280;30146;52.268;20.944;2023-03-22T01:24:20;100279.74;;;5.37;66.81
44441;BME280;30146;52.268;20.944;2023-03-22T01:26:51;100277.71;;;5.37;66.66
44441;BME280;30146;52.268;20.944;2023-03-22T01:29:23;100278.05;;;5.36;66.88
44441;BME280;30146;52.268;20.944;2023-03-22T01:31:54;100276.69;;;5.35;66.36
44441;BME280;30146;52.268;20.944;2023-03-22T01:34:26;100280.75;;;5.36;66.80
44441;BME280;30146;52.268;20.944;2023-03-22T01:36:57;100278.38;;;5.35;66.90
44441;BME280;30146;52.268;20.944;2023-03-22T01:39:28;100274.80;;;5.34;66.54
44441;BME280;30146;52.268;20.944;2023-03-22T01:42:04;100273.78;;;5.34;66.85
44441;BME280;30146;52.268;20.944;2023-03-22T01:44:37;100270.04;;;5.32;66.82
44441;BME280;30146;52.268;20.944;2023-03-22T01:47:10;100265.45;;;5.31;66.93
44441;BME280;30146;52.268;20.944;2023-03-22T01:49:41;100262.73;;;5.31;66.75
44441;BME280;30146;52.268;20.944;2023-03-22T01:52:14;100260.17;;;5.29;67.02
44441;BME280;30146;52.268;20.944;2023-03-22T01:55:08;100256.94;;;5.28;67.00
44441;BME280;30146;52.268;20.944;2023-03-22T01:57:49;100255.73;;;5.26;67.15
44441;BME280;30146;52.268;20.944;2023-03-22T02:00:26;100256.41;;;5.26;67.11
44441;BME280;30146;52.268;20.944;2023-03-22T02:03:14;100254.88;;;5.25;67.11
44441;BME280;30146;52.268;20.944;2023-03-22T02:05:46;100251.98;;;5.24;67.31
44441;BME280;30146;52.268;20.944;2023-03-22T02:08:18;100253.16;;;5.24;67.24
44441;BME280;30146;52.268;20.944;2023-03-22T02:11:14;100246.02;;;5.21;67.21
44441;BME280;30146;52.268;20.944;2023-03-22T02:14:13;100246.88;;;5.20;67.21
44441;BME280;30146;52.268;20.944;2023-03-22T02:16:57;100242.78;;;5.19;67.30
44441;BME280;30146;52.268;20.944;2023-03-22T02:22:37;100242.29;;;5.20;67.50
44441;BME280;30146;52.268;20.944;2023-03-22T02:28:19;100236.81;;;5.16;67.75
44441;BME280;30146;52.268;20.944;2023-03-22T02:31:15;100234.42;;;5.14;67.57
44441;BME280;30146;52.268;20.944;2023-03-22T02:34:29;100236.27;;;5.14;67.70
44441;BME280;30146;52.268;20.944;2023-03-22T02:37:24;100234.24;;;5.14;67.82
44441;BME280;30146;52.268;20.944;2023-03-22T02:40:03;100229.31;;;5.12;67.73
44441;BME280;30146;52.268;20.944;2023-03-22T02:42:45;100230.33;;;5.12;67.73
44441;BME280;30146;52.268;20.944;2023-03-22T02:45:25;100229.64;;;5.11;67.93
44441;BME280;30146;52.268;20.944;2023-03-22T02:48:07;100229.30;;;5.10;67.91
44441;BME280;30146;52.268;20.944;2023-03-22T02:50:42;100228.44;;;5.10;67.91
44441;BME280;30146;52.268;20.944;2023-03-22T02:53:18;100225.23;;;5.09;67.98
44441;BME280;30146;52.268;20.944;2023-03-22T02:55:52;100220.48;;;5.09;68.06
44441;BME280;30146;52.268;20.944;2023-03-22T02:58:27;100220.45;;;5.07;68.01
44441;BME280;30146;52.268;20.944;2023-03-22T03:01:03;100216.70;;;5.04;67.86
44441;BME280;30146;52.268;20.944;2023-03-22T03:03:37;100213.80;;;5.02;68.02
44441;BME280;30146;52.268;20.944;2023-03-22T03:06:15;100207.84;;;5.00;68.08
44441;BME280;30146;52.268;20.944;2023-03-22T03:08:48;100208.49;;;4.98;68.06
44441;BME280;30146;52.268;20.944;2023-03-22T03:11:20;100206.77;;;4.96;68.47
44441;BME280;30146;52.268;20.944;2023-03-22T03:13:51;100205.57;;;4.94;68.56
44441;BME280;30146;52.268;20.944;2023-03-22T03:16:26;100204.70;;;4.92;68.24
44441;BME280;30146;52.268;20.944;2023-03-22T03:19:02;100212.97;;;4.89;68.52
44441;BME280;30146;52.268;20.944;2023-03-22T03:21:41;100212.27;;;4.89;68.59
44441;BME280;30146;52.268;20.944;2023-03-22T03:24:22;100213.14;;;4.89;68.95
44441;BME280;30146;52.268;20.944;2023-03-22T03:27:01;100210.07;;;4.89;68.67
44441;BME280;30146;52.268;20.944;2023-03-22T03:29:41;100207.55;;;4.89;69.01
44441;BME280;30146;52.268;20.944;2023-03-22T03:32:18;100204.14;;;4.89;69.09
44441;BME280;30146;52.268;20.944;2023-03-22T03:34:56;100204.13;;;4.87;68.99
44441;BME280;30146;52.268;20.944;2023-03-22T03:37:32;100202.11;;;4.87;69.08
44441;BME280;30146;52.268;20.944;2023-03-22T03:40:11;100205.48;;;4.87;69.00
44441;BME280;30146;52.268;20.944;2023-03-22T03:42:45;100198.02;;;4.87;69.04
44441;BME280;30146;52.268;20.944;2023-03-22T03:45:20;100196.70;;;4.88;68.99
44441;BME280;30146;52.268;20.944;2023-03-22T03:47:54;100195.17;;;4.88;69.17
44441;BME280;30146;52.268;20.944;2023-03-22T03:50:27;100196.17;;;4.87;68.92
44441;BME280;30146;52.268;20.944;2023-03-22T03:52:58;100196.15;;;4.85;69.36
44441;BME280;30146;52.268;20.944;2023-03-22T03:55:30;100195.64;;;4.84;69.24
44441;BME280;30146;52.268;20.944;2023-03-22T03:58:02;100195.95;;;4.82;69.22
44441;BME280;30146;52.268;20.944;2023-03-22T04:00:33;100193.08;;;4.82;69.35
44441;BME280;30146;52.268;20.944;2023-03-22T04:03:30;100192.55;;;4.80;69.37
44441;BME280;30146;52.268;20.944;2023-03-22T04:06:21;100191.50;;;4.78;69.34
44441;BME280;30146;52.268;20.944;2023-03-22T04:08:56;100195.71;;;4.76;69.26
44441;BME280;30146;52.268;20.944;2023-03-22T04:11:30;100194.36;;;4.76;69.51
44441;BME280;30146;52.268;20.944;2023-03-22T04:14:02;100199.11;;;4.76;69.45
44441;BME280;30146;52.268;20.944;2023-03-22T04:16:34;100196.22;;;4.76;69.73
44441;BME280;30146;52.268;20.944;2023-03-22T04:19:06;100197.92;;;4.76;69.68
44441;BME280;30146;52.268;20.944;2023-03-22T04:21:38;100196.23;;;4.77;69.62
44441;BME280;30146;52.268;20.944;2023-03-22T04:24:10;100192.69;;;4.78;69.94
44441;BME280;30146;52.268;20.944;2023-03-22T04:26:43;100187.63;;;4.79;70.08
44441;BME280;30146;52.268;20.944;2023-03-22T04:29:28;100186.63;;;4.81;69.81
44441;BME280;30146;52.268;20.944;2023-03-22T04:32:29;100189.36;;;4.83;69.86
44441;BME280;30146;52.268;20.944;2023-03-22T04:35:00;100194.63;;;4.85;69.93
44441;BME280;30146;52.268;20.944;2023-03-22T04:37:31;100191.77;;;4.87;70.03
44441;BME280;30146;52.268;20.944;2023-03-22T04:40:15;100194.02;;;4.91;69.94
44441;BME280;30146;52.268;20.944;2023-03-22T04:42:59;100194.39;;;4.93;70.38
44441;BME280;30146;52.268;20.944;2023-03-22T04:45:45;100196.98;;;4.98;70.14
44441;BME280;30146;52.268;20.944;2023-03-22T04:48:21;100196.82;;;5.00;70.25
44441;BME280;30146;52.268;20.944;2023-03-22T04:50:53;100200.41;;;5.02;70.09
44441;BME280;30146;52.268;20.944;2023-03-22T04:53:25;100198.89;;;5.04;69.87
44441;BME280;30146;52.268;20.944;2023-03-22T04:55:59;100196.56;;;5.06;69.91
44441;BME280;30146;52.268;20.944;2023-03-22T04:58:36;100198.09;;;5.07;69.84
44441;BME280;30146;52.268;20.944;2023-03-22T05:01:13;100196.39;;;5.07;69.70
44441;BME280;30146;52.268;20.944;2023-03-22T05:03:46;100197.91;;;5.07;69.76
44441;BME280;30146;52.268;20.944;2023-03-22T05:06:18;100199.98;;;5.10;69.75
44441;BME280;30146;52.268;20.944;2023-03-22T05:09:00;100198.52;;;5.15;69.80
44441;BME280;30146;52.268;20.944;2023-03-22T05:11:32;100196.70;;;5.21;69.65
44441;BME280;30146;52.268;20.944;2023-03-22T05:14:29;100199.21;;;5.54;70.93
44441;BME280;30146;52.268;20.944;2023-03-22T05:17:00;100197.10;;;6.08;71.80
44441;BME280;30146;52.268;20.944;2023-03-22T05:19:38;100196.08;;;6.68;72.29
44441;BME280;30146;52.268;20.944;2023-03-22T05:22:13;100196.23;;;7.25;72.21
44441;BME280;30146;52.268;20.944;2023-03-22T05:24:50;100193.38;;;7.76;71.15
44441;BME280;30146;52.268;20.944;2023-03-22T05:27:26;100193.83;;;8.24;70.28
44441;BME280;30146;52.268;20.944;2023-03-22T05:30:24;100192.50;;;8.73;69.09
44441;BME280;30146;52.268;20.944;2023-03-22T05:33:06;100193.30;;;9.17;68.33
44441;BME280;30146;52.268;20.944;2023-03-22T05:35:50;100190.65;;;9.55;67.55
44441;BME280;30146;52.268;20.944;2023-03-22T05:38:25;100187.58;;;9.94;66.63
44441;BME280;30146;52.268;20.944;2023-03-22T05:41:00;100192.46;;;10.37;66.19
44441;BME280;30146;52.268;20.944;2023-03-22T05:43:32;100193.33;;;10.81;65.77
44441;BME280;30146;52.268;20.944;2023-03-22T05:46:07;100194.92;;;11.26;65.03
44441;BME280;30146;52.268;20.944;2023-03-22T05:49:02;100192.04;;;11.80;64.35
44441;BME280;30146;52.268;20.944;2023-03-22T05:51:34;100193.60;;;12.28;63.67
44441;BME280;30146;52.268;20.944;2023-03-22T05:54:10;100190.84;;;12.73;62.88
44441;BME280;30146;52.268;20.944;2023-03-22T05:56:49;100194.55;;;13.24;62.38
44441;BME280;30146;52.268;20.944;2023-03-22T05:59:22;100193.99;;;13.56;61.19
44441;BME280;30146;52.268;20.944;2023-03-22T06:01:53;100195.52;;;13.71;60.33
44441;BME280;30146;52.268;20.944;2023-03-22T06:04:25;100196.81;;;13.81;59.32
44441;BME280;30146;52.268;20.944;2023-03-22T06:07:12;100197.74;;;13.92;58.26
44441;BME280;30146;52.268;20.944;2023-03-22T06:09:46;100195.86;;;14.12;57.95
44441;BME280;30146;52.268;20.944;2023-03-22T06:12:24;100198.85;;;14.41;57.50
44441;BME280;30146;52.268;20.944;2023-03-22T06:15:05;100200.77;;;14.83;57.34
44441;BME280;30146;52.268;20.944;2023-03-22T06:17:36;100195.05;;;15.14;56.42
44441;BME280;30146;52.268;20.944;2023-03-22T06:20:11;100193.90;;;15.50;56.25
44441;BME280;30146;52.268;20.944;2023-03-22T06:22:48;100192.36;;;15.83;55.28
44441;BME280;30146;52.268;20.944;2023-03-22T06:25:22;100192.20;;;15.92;54.61
44441;BME280;30146;52.268;20.944;2023-03-22T06:27:53;100189.42;;;16.13;54.42
44441;BME280;30146;52.268;20.944;2023-03-22T06:30:25;100189.33;;;16.26;53.15
44441;BME280;30146;52.268;20.944;2023-03-22T06:33:11;100189.66;;;16.36;52.83
44441;BME280;30146;52.268;20.944;2023-03-22T06:35:44;100186.27;;;16.58;52.20
44441;BME280;30146;52.268;20.944;2023-03-22T06:38:20;100184.17;;;16.40;50.81
44441;BME280;30146;52.268;20.944;2023-03-22T06:40:51;100183.52;;;16.00;50.24
44441;BME280;30146;52.268;20.944;2023-03-22T06:43:23;100186.66;;;15.56;49.71
44441;BME280;30146;52.268;20.944;2023-03-22T06:45:57;100189.86;;;15.03;49.55
44441;BME280;30146;52.268;20.944;2023-03-22T06:48:33;100189.43;;;14.52;49.53
44441;BME280;30146;52.268;20.944;2023-03-22T06:51:11;100182.09;;;14.06;49.92
44441;BME280;30146;52.268;20.944;2023-03-22T06:53:43;100179.59;;;13.76;50.63
44441;BME280;30146;52.268;20.944;2023-03-22T06:56:15;100175.84;;;13.61;51.23
44441;BME280;30146;52.268;20.944;2023-03-22T06:58:53;100175.25;;;13.50;51.30
44441;BME280;30146;52.268;20.944;2023-03-22T07:01:26;100174.27;;;13.96;52.43
44441;BME280;30146;52.268;20.944;2023-03-22T07:03:59;100175.73;;;14.56;52.54
44441;BME280;30146;52.268;20.944;2023-03-22T07:06:30;100177.46;;;14.80;51.89
44441;BME280;30146;52.268;20.944;2023-03-22T07:09:07;100170.40;;;14.63;51.10
44441;BME280;30146;52.268;20.944;2023-03-22T07:11:39;100168.42;;;14.41;51.07
44441;BME280;30146;52.268;20.944;2023-03-22T07:14:10;100168.98;;;14.14;50.74
44441;BME280;30146;52.268;20.944;2023-03-22T07:16:57;100164.25;;;13.78;50.59
44441;BME280;30146;52.268;20.944;2023-03-22T07:19:29;100165.20;;;13.46;50.83
44441;BME280;30146;52.268;20.944;2023-03-22T07:22:04;100171.04;;;13.22;51.22
44441;BME280;30146;52.268;20.944;2023-03-22T07:24:35;100164.51;;;13.08;51.57
44441;BME280;30146;52.268;20.944;2023-03-22T07:27:23;100157.43;;;13.03;51.94
44441;BME280;30146;52.268;20.944;2023-03-22T07:29:55;100152.98;;;13.18;52.54
44441;BME280;30146;52.268;20.944;2023-03-22T07:32:26;100149.47;;;13.36;52.73
44441;BME280;30146;52.268;20.944;2023-03-22T07:35:05;100148.77;;;13.65;52.75
44441;BME280;30146;52.268;20.944;2023-03-22T07:37:39;100149.08;;;13.67;52.09
44441;BME280;30146;52.268;20.944;2023-03-22T07:40:19;100151.56;;;13.90;52.63
44441;BME280;30146;52.268;20.944;2023-03-22T07:42:52;100156.45;;;14.57;53.13
44441;BME280;30146;52.268;20.944;2023-03-22T07:45:44;100152.68;;;15.03;52.54
44441;BME280;30146;52.268;20.944;2023-03-22T07:48:34;100150.31;;;15.66;52.26
44441;BME280;30146;52.268;20.944;2023-03-22T07:51:30;100152.79;;;16.63;52.72
44441;BME280;30146;52.268;20.944;2023-03-22T07:54:01;100148.47;;;17.13;51.58
44441;BME280;30146;52.268;20.944;2023-03-22T07:56:36;100145.98;;;17.40;50.08
44441;BME280;30146;52.268;20.944;2023-03-22T07:59:08;100138.13;;;17.42;49.15
44441;BME280;30146;52.268;20.944;2023-03-22T08:01:40;100135.54;;;17.38;48.96
44441;BME280;30146;52.268;20.944;2023-03-22T08:04:20;100137.02;;;17.52;49.04
44441;BME280;30146;52.268;20.944;2023-03-22T08:07:06;100135.44;;;18.11;49.72
44441;BME280;30146;52.268;20.944;2023-03-22T08:09:39;100126.64;;;18.53;49.07
44441;BME280;30146;52.268;20.944;2023-03-22T08:12:12;100127.17;;;18.87;48.44
44441;BME280;30146;52.268;20.944;2023-03-22T08:14:44;100130.09;;;19.34;47.99
44441;BME280;30146;52.268;20.944;2023-03-22T08:17:23;100124.69;;;19.66;47.08
44441;BME280;30146;52.268;20.944;2023-03-22T08:19:55;100126.69;;;19.75;46.29
44441;BME280;30146;52.268;20.944;2023-03-22T08:22:36;100125.48;;;19.43;45.21
44441;BME280;30146;52.268;20.944;2023-03-22T08:25:26;100128.64;;;18.96;45.05
44441;BME280;30146;52.268;20.944;2023-03-22T08:28:08;100127.11;;;18.54;45.22
44441;BME280;30146;52.268;20.944;2023-03-22T08:30:41;100123.87;;;18.14;45.49
44441;BME280;30146;52.268;20.944;2023-03-22T08:33:14;100122.30;;;17.78;45.75
44441;BME280;30146;52.268;20.944;2023-03-22T08:35:46;100122.30;;;17.33;45.55
44441;BME280;30146;52.268;20.944;2023-03-22T08:38:18;100120.17;;;16.86;45.79
44441;BME280;30146;52.268;20.944;2023-03-22T08:40:52;100116.16;;;16.41;46.14
44441;BME280;30146;52.268;20.944;2023-03-22T08:43:25;100115.77;;;15.94;46.41
44441;BME280;30146;52.268;20.944;2023-03-22T08:45:56;100117.35;;;15.57;46.95
44441;BME280;30146;52.268;20.944;2023-03-22T08:48:28;100111.84;;;15.21;47.28
44441;BME280;30146;52.268;20.944;2023-03-22T08:51:12;100117.04;;;14.93;47.99
44441;BME280;30146;52.268;20.944;2023-03-22T08:53:53;100119.33;;;14.74;48.60
44441;BME280;30146;52.268;20.944;2023-03-22T08:56:45;100123.81;;;14.56;49.11
44441;BME280;30146;52.268;20.944;2023-03-22T08:59:43;100128.11;;;14.25;48.89
44441;BME280;30146;52.268;20.944;2023-03-22T09:02:25;100120.95;;;13.91;49.08
44441;BME280;30146;52.268;20.944;2023-03-22T09:04:58;100121.16;;;13.63;49.59
44441;BME280;30146;52.268;20.944;2023-03-22T09:07:29;100120.21;;;13.40;49.85
44441;BME280;30146;52.268;20.944;2023-03-22T09:10:22;100122.31;;;13.22;50.73
44441;BME280;30146;52.268;20.944;2023-03-22T09:12:54;100124.28;;;13.12;51.05
44441;BME280;30146;52.268;20.944;2023-03-22T09:15:25;100128.67;;;13.00;51.30
44441;BME280;30146;52.268;20.944;2023-03-22T09:18:09;100123.48;;;12.87;51.49
44441;BME280;30146;52.268;20.944;2023-03-22T09:20:40;100123.91;;;12.75;51.75
44441;BME280;30146;52.268;20.944;2023-03-22T09:23:13;100116.39;;;12.66;52.15
44441;BME280;30146;52.268;20.944;2023-03-22T09:25:45;100107.39;;;12.62;52.48
44441;BME280;30146;52.268;20.944;2023-03-22T09:28:18;100108.01;;;12.58;52.56
44441;BME280;30146;52.268;20.944;2023-03-22T09:30:49;100097.86;;;12.50;52.53
44441;BME280;30146;52.268;20.944;2023-03-22T09:33:20;100094.70;;;12.46;52.79
44441;BME280;30146;52.268;20.944;2023-03-22T09:35:55;100093.88;;;12.44;53.04
44441;BME280;30146;52.268;20.944;2023-03-22T09:38:26;100095.27;;;12.43;53.21
44441;BME280;30146;52.268;20.944;2023-03-22T09:41:05;100095.02;;;12.46;53.57
44441;BME280;30146;52.268;20.944;2023-03-22T09:43:41;100092.38;;;12.50;53.68
44441;BME280;30146;52.268;20.944;2023-03-22T09:46:16;100086.12;;;12.54;53.81
44441;BME280;30146;52.268;20.944;2023-03-22T09:48:49;100077.76;;;12.61;53.92
44441;BME280;30146;52.268;20.944;2023-03-22T09:51:32;100079.88;;;12.65;53.75
44441;BME280;30146;52.268;20.944;2023-03-22T09:54:15;100075.54;;;12.67;53.87
44441;BME280;30146;52.268;20.944;2023-03-22T09:56:52;100070.55;;;12.68;53.81
44441;BME280;30146;52.268;20.944;2023-03-22T09:59:29;100067.85;;;12.66;53.85
44441;BME280;30146;52.268;20.944;2023-03-22T10:02:21;100078.27;;;12.67;53.85
44441;BME280;30146;52.268;20.944;2023-03-22T10:05:03;100080.11;;;12.62;53.63
44441;BME280;30146;52.268;20.944;2023-03-22T10:07:56;100082.52;;;12.62;53.76
44441;BME280;30146;52.268;20.944;2023-03-22T10:10:31;100080.70;;;12.59;53.75
44441;BME280;30146;52.268;20.944;2023-03-22T10:13:05;100080.59;;;12.56;53.75
44441;BME280;30146;52.268;20.944;2023-03-22T10:15:45;100079.45;;;12.53;53.84
44441;BME280;30146;52.268;20.944;2023-03-22T10:18:19;100076.64;;;12.48;53.88
44441;BME280;30146;52.268;20.944;2023-03-22T10:20:56;100076.80;;;12.41;53.90
44441;BME280;30146;52.268;20.944;2023-03-22T10:23:33;100075.52;;;12.36;54.29
44441;BME280;30146;52.268;20.944;2023-03-22T10:26:06;100074.02;;;12.35;54.30
44441;BME280;30146;52.268;20.944;2023-03-22T10:28:40;100074.02;;;12.35;54.41
44441;BME280;30146;52.268;20.944;2023-03-22T10:31:14;100078.35;;;12.32;54.46
44441;BME280;30146;52.268;20.944;2023-03-22T10:33:53;100074.73;;;12.33;54.73
44441;BME280;30146;52.268;20.944;2023-03-22T10:36:29;100075.51;;;12.38;54.91
44441;BME280;30146;52.268;20.944;2023-03-22T10:39:08;100073.75;;;12.40;54.74
44441;BME280;30146;52.268;20.944;2023-03-22T10:41:43;100072.19;;;12.40;54.78
44441;BME280;30146;52.268;20.944;2023-03-22T10:44:17;100069.29;;;12.40;54.72
44441;BME280;30146;52.268;20.944;2023-03-22T10:46:50;100070.88;;;12.37;54.62
44441;BME280;30146;52.268;20.944;2023-03-22T10:49:28;100064.52;;;12.38;54.83
44441;BME280;30146;52.268;20.944;2023-03-22T10:52:03;100064.20;;;12.44;55.11
44441;BME280;30146;52.268;20.944;2023-03-22T10:54:39;100062.52;;;12.51;54.98
44441;BME280;30146;52.268;20.944;2023-03-22T10:57:10;100059.94;;;12.60;55.02
44441;BME280;30146;52.268;20.944;2023-03-22T10:59:45;100052.98;;;12.65;54.96
44441;BME280;30146;52.268;20.944;2023-03-22T11:02:20;100053.33;;;12.71;55.02
44441;BME280;30146;52.268;20.944;2023-03-22T11:04:54;100047.73;;;12.76;54.98
44441;BME280;30146;52.268;20.944;2023-03-22T11:07:33;100042.18;;;12.79;54.82
44441;BME280;30146;52.268;20.944;2023-03-22T11:10:21;100040.45;;;12.80;54.82
44441;BME280;30146;52.268;20.944;2023-03-22T11:12:55;100043.34;;;12.81;54.87
44441;BME280;30146;52.268;20.944;2023-03-22T11:15:48;100041.43;;;12.82;54.90
44441;BME280;30146;52.268;20.944;2023-03-22T11:18:21;100037.48;;;12.82;54.76
44441;BME280;30146;52.268;20.944;2023-03-22T11:20:57;100039.41;;;12.80;54.85
44441;BME280;30146;52.268;20.944;2023-03-22T11:23:32;100038.74;;;12.79;54.76
44441;BME280;30146;52.268;20.944;2023-03-22T11:26:09;100041.02;;;12.78;54.68
44441;BME280;30146;52.268;20.944;2023-03-22T11:28:46;100038.70;;;12.74;54.63
44441;BME280;30146;52.268;20.944;2023-03-22T11:31:18;100034.69;;;12.69;54.52
44441;BME280;30146;52.268;20.944;2023-03-22T11:33:57;100031.02;;;12.65;54.58
44441;BME280;30146;52.268;20.944;2023-03-22T11:36:29;100026.08;;;12.63;54.68
44441;BME280;30146;52.268;20.944;2023-03-22T11:39:02;100030.95;;;12.60;54.74
44441;BME280;30146;52.268;20.944;2023-03-22T11:41:37;100028.61;;;12.57;54.88
44441;BME280;30146;52.268;20.944;2023-03-22T11:44:12;100030.70;;;12.56;54.89
44441;BME280;30146;52.268;20.944;2023-03-22T11:46:48;100022.04;;;12.52;54.83
44441;BME280;30146;52.268;20.944;2023-03-22T11:49:21;100015.20;;;12.51;55.06
44441;BME280;30146;52.268;20.944;2023-03-22T11:51:56;100008.45;;;12.54;55.24
44441;BME280;30146;52.268;20.944;2023-03-22T11:54:39;100009.23;;;12.58;55.28
44441;BME280;30146;52.268;20.944;2023-03-22T11:57:15;100008.08;;;12.64;55.35
44441;BME280;30146;52.268;20.944;2023-03-22T11:59:52;100007.05;;;12.70;55.41
44441;BME280;30146;52.268;20.944;2023-03-22T12:02:27;100001.52;;;12.80;55.56
44441;BME280;30146;52.268;20.944;2023-03-22T12:05:04;99996.45;;;12.90;55.40
44441;BME280;30146;52.268;20.944;2023-03-22T12:07:38;99994.89;;;12.98;55.23
44441;BME280;30146;52.268;20.944;2023-03-22T12:10:17;99990.90;;;13.06;55.25
44441;BME280;30146;52.268;20.944;2023-03-22T12:12:54;99982.45;;;13.15;55.29
44441;BME280;30146;52.268;20.944;2023-03-22T12:15:30;99977.75;;;13.24;55.24
44441;BME280;30146;52.268;20.944;2023-03-22T12:18:09;99979.33;;;13.29;54.96
44441;BME280;30146;52.268;20.944;2023-03-22T12:20:46;99974.96;;;13.33;54.81
44441;BME280;30146;52.268;20.944;2023-03-22T12:23:21;99974.29;;;13.39;54.85
44441;BME280;30146;52.268;20.944;2023-03-22T12:25:56;99972.93;;;13.45;54.77
44441;BME280;30146;52.268;20.944;2023-03-22T12:28:33;99967.20;;;13.47;54.63
44441;BME280;30146;52.268;20.944;2023-03-22T12:31:12;99964.38;;;13.51;54.62
44441;BME280;30146;52.268;20.944;2023-03-22T12:33:48;99959.42;;;13.56;54.78
44441;BME280;30146;52.268;20.944;2023-03-22T12:36:23;99960.79;;;13.61;54.68
44441;BME280;30146;52.268;20.944;2023-03-22T12:39:00;99959.39;;;13.63;54.31
44441;BME280;30146;52.268;20.944;2023-03-22T12:41:36;99959.05;;;13.62;54.17
44441;BME280;30146;52.268;20.944;2023-03-22T12:44:16;99955.98;;;13.62;54.24
44441;BME280;30146;52.268;20.944;2023-03-22T12:46:50;99955.40;;;13.64;54.31
44441;BME280;30146;52.268;20.944;2023-03-22T12:49:40;99954.86;;;13.65;54.12
44441;BME280;30146;52.268;20.944;2023-03-22T12:52:16;99953.02;;;13.63;54.10
44441;BME280;30146;52.268;20.944;2023-03-22T12:54:53;99951.83;;;13.63;54.14
44441;BME280;30146;52.268;20.944;2023-03-22T12:57:29;99948.24;;;13.62;54.03
44441;BME280;30146;52.268;20.944;2023-03-22T13:00:06;99945.36;;;13.61;54.07
44441;BME280;30146;52.268;20.944;2023-03-22T13:02:51;99947.04;;;13.62;54.01
44441;BME280;30146;52.268;20.944;2023-03-22T13:05:27;99942.89;;;13.63;54.10
44441;BME280;30146;52.268;20.944;2023-03-22T13:07:59;99945.69;;;13.67;54.13
44441;BME280;30146;52.268;20.944;2023-03-22T13:10:59;99944.50;;;13.67;53.74
44441;BME280;30146;52.268;20.944;2023-03-22T13:13:47;99937.93;;;13.69;53.97
44441;BME280;30146;52.268;20.944;2023-03-22T13:16:24;99935.13;;;13.71;53.89
44441;BME280;30146;52.268;20.944;2023-03-22T13:19:32;99930.31;;;13.71;53.86
44441;BME280;30146;52.268;20.944;2023-03-22T13:22:26;99924.94;;;13.73;53.94
44441;BME280;30146;52.268;20.944;2023-03-22T13:25:13;99921.84;;;13.74;53.95
44441;BME280;30146;52.268;20.944;2023-03-22T13:28:00;99924.48;;;13.76;54.08
44441;BME280;30146;52.268;20.944;2023-03-22T13:30:34;99922.08;;;13.76;54.02
44441;BME280;30146;52.268;20.944;2023-03-22T13:33:18;99919.13;;;13.77;54.10
44441;BME280;30146;52.268;20.944;2023-03-22T13:35:53;99920.82;;;13.78;54.03
44441;BME280;30146;52.268;20.944;2023-03-22T13:38:25;99922.77;;;13.77;53.89
44441;BME280;30146;52.268;20.944;2023-03-22T13:41:03;99924.75;;;13.73;53.83